Time;durP1;ratioP1;P1;durP2;ratioP2;P2;SDS_P1;SDS_P2;PMS_P1;PMS_P2;Temp;Humidity;BMP_temperature;BMP_pressure;BME280_temperature;BME280_humidity;BME280_pressure;Samples;Min_cycle;Max_cycle;Signal;HPM_P1;HPM_P2
2023/05/17 00:01:47;;;;;;;;;9.67;8.67;;;;;13.08;59.13;102065.75;4957813;28;45651;-71
2023/05/17 00:04:12;;;;;;;;;8.00;8.00;;;;;12.52;59.11;101974.38;4957973;28;45280;-71
2023/05/17 00:06:37;;;;;;;;;8.00;7.33;;;;;12.74;59.05;102019.63;4957967;28;45478;-72
2023/05/17 00:09:03;;;;;;;;;8.67;7.67;;;;;12.85;59.14;102038.28;4958532;28;45380;-71
2023/05/17 00:11:28;;;;;;;;;7.33;7.33;;;;;12.98;58.75;102054.97;4957598;28;46592;-71
2023/05/17 00:13:53;;;;;;;;;7.67;7.67;;;;;12.71;58.76;102009.22;4957500;28;45254;-71
2023/05/17 00:16:19;;;;;;;;;9.00;7.67;;;;;12.32;58.51;101941.34;4940084;28;54618;-71
2023/05/17 00:18:44;;;;;;;;;8.67;8.00;;;;;12.92;58.44;102043.97;4957936;28;45353;-73
2023/05/17 00:21:09;;;;;;;;;8.67;8.67;;;;;12.94;58.50;102052.69;4957890;28;46494;-72
2023/05/17 00:23:35;;;;;;;;;17.00;17.00;;;;;12.98;58.86;102057.63;4940191;28;45489;-72
2023/05/17 00:26:00;;;;;;;;;9.00;9.00;;;;;12.90;58.37;102049.44;4940169;28;50448;-73
2023/05/17 00:28:25;;;;;;;;;8.67;8.00;;;;;12.83;58.60;102044.72;4957958;28;45296;-71
2023/05/17 00:30:51;;;;;;;;;6.00;6.00;;;;;12.73;58.62;102048.16;4957635;28;46138;-70
2023/05/17 00:33:16;;;;;;;;;7.00;6.67;;;;;12.72;59.40;102064.28;4940411;28;45949;-72
2023/05/17 00:35:41;;;;;;;;;10.33;6.33;;;;;12.07;59.75;101953.16;4942335;28;45583;-72
2023/05/17 00:38:07;;;;;;;;;8.00;6.67;;;;;12.71;59.22;102057.25;4943754;28;46766;-72
2023/05/17 00:40:32;;;;;;;;;10.00;10.00;;;;;12.45;59.30;102012.22;4960592;28;47913;-71
2023/05/17 00:42:57;;;;;;;;;9.67;7.67;;;;;12.69;59.06;102060.06;4943124;28;45276;-72
2023/05/17 00:45:23;;;;;;;;;5.67;5.67;;;;;12.67;59.20;102053.16;4961328;28;45328;-72
2023/05/17 00:47:48;;;;;;;;;8.00;7.00;;;;;12.61;59.08;102070.47;4961101;28;45324;-72
2023/05/17 00:50:13;;;;;;;;;6.33;6.00;;;;;11.73;60.40;101926.50;4961216;28;46975;-71
2023/05/17 00:52:39;;;;;;;;;9.00;7.33;;;;;12.33;59.83;102023.88;4943360;28;49334;-71
2023/05/17 00:55:05;;;;;;;;;7.00;5.67;;;;;12.45;60.64;102070.06;4960729;28;45342;-71
2023/05/17 00:57:31;;;;;;;;;8.00;7.00;;;;;12.25;60.55;102034.31;4942978;28;45451;-75
2023/05/17 00:59:56;;;;;;;;;8.00;6.67;;;;;11.95;60.97;101980.78;4942996;28;48610;-72
2023/05/17 01:02:21;;;;;;;;;8.33;6.00;;;;;11.97;60.64;101978.84;4960514;28;45358;-72
2023/05/17 01:04:47;;;;;;;;;11.00;9.67;;;;;12.56;60.30;102074.50;4960516;28;45415;-71
2023/05/17 01:07:13;;;;;;;;;7.00;6.00;;;;;12.43;60.18;102042.66;4960870;28;45427;-71
2023/05/17 01:09:38;;;;;;;;;10.00;7.67;;;;;12.39;60.27;102025.19;4960383;28;45693;-72
2023/05/17 01:12:26;;;;;;;;;10.00;7.67;;;;;12.63;59.94;102049.88;4942776;28;45596;-72
2023/05/17 01:15:06;;;;;;;;;9.00;7.00;;;;;12.72;60.19;102051.78;4960254;28;45198;-71
2023/05/17 01:17:49;;;;;;;;;6.67;6.00;;;;;12.75;59.85;102045.34;4960565;28;45466;-73
2023/05/17 01:20:27;;;;;;;;;10.00;8.00;;;;;12.64;59.54;102018.72;4942897;28;48307;-71
2023/05/17 01:23:11;;;;;;;;;8.33;7.67;;;;;12.84;59.41;102049.94;4960313;28;45422;-71
2023/05/17 01:25:53;;;;;;;;;6.67;5.33;;;;;12.80;59.26;102035.97;4942885;28;45368;-71
2023/05/17 01:28:21;;;;;;;;;6.67;5.67;;;;;12.63;59.21;102017.03;4960072;28;45371;-71
2023/05/17 01:30:50;;;;;;;;;8.67;8.67;;;;;12.72;59.38;102043.78;4960076;28;45971;-72
2023/05/17 01:33:16;;;;;;;;;9.00;8.00;;;;;12.78;59.68;102047.75;4942598;28;46147;-71
2023/05/17 01:35:42;;;;;;;;;5.00;5.00;;;;;12.82;59.56;102053.72;4959927;28;45253;-71
2023/05/17 01:38:07;;;;;;;;;8.67;8.00;;;;;12.78;59.71;102047.75;4960173;28;45544;-71
2023/05/17 01:40:35;;;;;;;;;6.33;6.33;;;;;12.74;59.08;102032.97;4959988;28;45569;-71
2023/05/17 01:43:11;;;;;;;;;10.00;9.00;;;;;12.66;59.68;102043.44;4942240;28;45375;-71
2023/05/17 01:45:55;;;;;;;;;8.67;7.67;;;;;12.64;60.30;102045.41;4960034;28;45332;-71
2023/05/17 01:48:35;;;;;;;;;8.00;7.00;;;;;12.48;60.33;102013.78;4959422;28;45546;-71
2023/05/17 01:51:02;;;;;;;;;9.67;8.33;;;;;12.28;60.53;101980.75;4942170;28;47602;-71
2023/05/17 01:53:29;;;;;;;;;11.00;11.00;;;;;12.64;60.14;102042.72;4960013;28;45194;-71
2023/05/17 01:56:04;;;;;;;;;9.67;7.00;;;;;12.58;59.99;102043.22;4959794;28;45465;-71
2023/05/17 01:58:32;;;;;;;;;9.67;7.67;;;;;12.57;60.57;102049.53;4959786;28;45562;-73
2023/05/17 02:01:00;;;;;;;;;9.00;8.67;;;;;12.60;60.53;102043.94;4959849;28;46806;-71
2023/05/17 02:03:26;;;;;;;;;10.00;8.00;;;;;12.55;60.70;102052.31;4959671;28;45280;-71
2023/05/17 02:05:51;;;;;;;;;7.00;7.00;;;;;12.30;60.82;101993.94;4959737;28;45324;-72
2023/05/17 02:08:17;;;;;;;;;11.00;11.00;;;;;12.62;60.56;102042.84;4942146;28;45553;-71
2023/05/17 02:10:42;;;;;;;;;10.33;9.00;;;;;12.59;60.38;102028.91;4942017;28;46372;-72
2023/05/17 02:13:07;;;;;;;;;12.00;12.00;;;;;12.51;60.50;102002.00;4941459;28;45331;-71
2023/05/17 02:15:33;;;;;;;;;11.33;10.33;;;;;12.56;61.27;102037.16;4959393;28;45515;-71
2023/05/17 02:17:58;;;;;;;;;11.33;10.00;;;;;12.41;61.50;102016.13;4959903;28;45436;-71
2023/05/17 02:20:23;;;;;;;;;16.00;11.00;;;;;12.56;61.21;102039.81;4941562;28;60657;-71
2023/05/17 02:22:49;;;;;;;;;15.00;11.00;;;;;12.46;61.55;102045.91;4959341;28;45428;-71
2023/05/17 02:25:15;;;;;;;;;8.33;8.33;;;;;12.19;61.85;102018.78;4959271;28;48853;-70
2023/05/17 02:27:40;;;;;;;;;10.67;9.00;;;;;12.34;62.18;102052.22;4959288;28;45427;-71
2023/05/17 02:30:06;;;;;;;;;10.67;10.67;;;;;12.15;62.55;102038.69;4959199;28;46421;-71
2023/05/17 02:32:32;;;;;;;;;11.00;9.00;;;;;12.21;62.97;102062.19;4959298;28;45320;-71
2023/05/17 02:34:58;;;;;;;;;12.00;11.67;;;;;12.21;63.12;102056.84;4941538;28;45632;-71
2023/05/17 02:37:24;;;;;;;;;8.33;8.33;;;;;12.22;62.53;102055.91;4959350;28;45240;-72
2023/05/17 02:39:49;;;;;;;;;11.00;10.00;;;;;11.80;62.75;101988.16;4959193;28;46592;-71
2023/05/17 02:42:15;;;;;;;;;11.33;11.33;;;;;12.11;62.64;102042.56;4959032;28;45276;-72
2023/05/17 02:44:41;;;;;;;;;7.67;6.67;;;;;11.96;63.28;102027.78;4958935;28;45230;-71
2023/05/17 02:47:06;;;;;;;;;13.00;12.00;;;;;12.15;63.10;102062.69;4941831;28;45180;-71
2023/05/17 02:49:31;;;;;;;;;14.33;12.33;;;;;12.20;62.99;102063.16;4958814;28;46467;-70
2023/05/17 02:51:57;;;;;;;;;14.00;12.00;;;;;12.07;62.84;102038.47;4958840;28;47282;-72
2023/05/17 02:54:22;;;;;;;;;11.33;9.67;;;;;12.27;63.10;102069.72;4958977;28;45432;-73
2023/05/17 02:56:48;;;;;;;;;14.00;11.33;;;;;12.14;62.83;102052.97;4959103;28;45299;-70
2023/05/17 02:59:13;;;;;;;;;14.67;13.33;;;;;11.75;63.06;101987.66;4957236;28;46762;-71
2023/05/17 03:01:38;;;;;;;;;14.33;14.33;;;;;12.13;62.81;102076.13;4959076;28;45406;-72
2023/05/17 03:04:04;;;;;;;;;10.33;9.00;;;;;11.47;63.08;101954.38;4958880;28;45382;-72
2023/05/17 03:06:30;;;;;;;;;14.00;11.00;;;;;12.18;63.05;102071.28;4959047;28;45362;-72
2023/05/17 03:08:55;;;;;;;;;14.67;12.00;;;;;12.16;63.15;102080.38;4941089;28;48862;-72
2023/05/17 03:11:20;;;;;;;;;8.67;8.67;;;;;11.83;62.68;102009.28;4940826;28;45896;-70
2023/05/17 03:13:50;;;;;;;;;14.33;12.33;;;;;12.15;63.02;102071.53;4958506;28;45476;-70
2023/05/17 03:16:15;;;;;;;;;15.00;11.33;;;;;12.10;63.15;102078.19;4958731;28;45416;-72
2023/05/17 03:18:41;;;;;;;;;12.33;11.67;;;;;12.02;63.49;102064.63;4940804;28;47404;-71
2023/05/17 03:21:06;;;;;;;;;13.00;12.33;;;;;12.11;63.64;102080.72;4958354;28;49003;-72
2023/05/17 03:23:31;;;;;;;;;18.67;14.00;;;;;11.03;63.37;101896.63;4941075;28;45679;-72
2023/05/17 03:25:57;;;;;;;;;15.67;15.00;;;;;12.06;63.78;102066.09;4941296;28;45606;-71
2023/05/17 03:28:22;;;;;;;;;17.00;15.67;;;;;12.11;63.70;102074.56;4940579;28;49025;-71
2023/05/17 03:30:47;;;;;;;;;15.33;13.33;;;;;12.11;63.77;102070.06;4940877;28;46074;-71
2023/05/17 03:33:13;;;;;;;;;18.00;16.00;;;;;12.11;63.78;102069.22;4941006;28;45339;-71
2023/05/17 03:35:38;;;;;;;;;23.33;19.00;;;;;12.02;63.67;102059.31;4958351;28;45601;-71
2023/05/17 03:38:03;;;;;;;;;18.00;16.33;;;;;12.05;64.19;102083.06;4958238;28;46521;-71
2023/05/17 03:40:29;;;;;;;;;18.00;17.67;;;;;12.00;64.22;102077.22;4940524;28;45628;-70
2023/05/17 03:42:54;;;;;;;;;18.33;17.00;;;;;11.92;64.02;102053.84;4940268;28;45478;-72
2023/05/17 03:45:20;;;;;;;;;21.67;20.00;;;;;11.79;64.48;102037.94;4958312;28;45263;-72
2023/05/17 03:47:45;;;;;;;;;18.00;17.00;;;;;12.05;65.21;102083.91;4958370;28;46437;-71
2023/05/17 03:50:10;;;;;;;;;20.67;20.00;;;;;10.94;65.27;101914.13;4940467;28;46236;-71
2023/05/17 03:52:36;;;;;;;;;20.00;17.67;;;;;11.80;65.43;102087.59;4940531;28;45359;-71
2023/05/17 03:55:01;;;;;;;;;20.67;19.33;;;;;11.71;66.00;102069.66;4958316;28;45245;-71
2023/05/17 03:57:27;;;;;;;;;23.00;21.67;;;;;11.69;65.98;102084.91;4957756;28;46477;-71
2023/05/17 03:59:52;;;;;;;;;18.67;17.67;;;;;11.75;66.30;102084.44;4939843;28;45335;-72
2023/05/17 04:02:18;;;;;;;;;23.67;21.00;;;;;11.65;66.16;102083.47;4958146;28;45334;-71
2023/05/17 04:04:51;;;;;;;;;27.00;23.00;;;;;10.90;66.99;101972.03;4958294;28;45309;-71
2023/05/17 04:07:17;;;;;;;;;20.67;18.00;;;;;11.10;67.63;102010.44;4957570;28;45576;-71
2023/05/17 04:09:42;;;;;;;;;20.00;19.67;;;;;11.47;67.30;102084.88;4958210;28;45359;-70
2023/05/17 04:12:09;;;;;;;;;26.33;24.00;;;;;11.58;67.22;102090.19;4961357;28;45387;-71
2023/05/17 04:14:35;;;;;;;;;29.00;27.33;;;;;11.66;67.16;102111.78;4961226;28;45283;-71
2023/05/17 04:17:01;;;;;;;;;30.67;27.67;;;;;11.67;67.35;102116.16;4943143;28;47712;-71
2023/05/17 04:19:26;;;;;;;;;26.33;24.67;;;;;11.64;68.11;102115.53;4943641;28;46074;-71
2023/05/17 04:21:51;;;;;;;;;26.00;25.00;;;;;11.40;68.15;102099.59;4961091;28;45300;-71
2023/05/17 04:24:17;;;;;;;;;28.33;25.67;;;;;11.31;67.85;102069.19;4961388;28;45445;-71
2023/05/17 04:26:43;;;;;;;;;30.67;22.67;;;;;11.25;68.42;102065.19;4943419;28;46498;-71
2023/05/17 04:29:08;;;;;;;;;29.67;25.00;;;;;11.28;68.73;102104.91;4943370;28;46177;-71
2023/05/17 04:31:34;;;;;;;;;31.33;27.00;;;;;11.24;69.18;102110.56;4961236;28;45482;-72
2023/05/17 04:33:59;;;;;;;;;27.67;24.67;;;;;11.21;68.84;102124.97;4960812;28;45277;-72
2023/05/17 04:36:25;;;;;;;;;29.67;29.00;;;;;11.20;69.29;102139.22;4943265;28;47488;-72
2023/05/17 04:38:50;;;;;;;;;27.00;24.00;;;;;11.19;69.11;102118.88;4961067;28;45698;-71
2023/05/17 04:41:16;;;;;;;;;29.00;24.67;;;;;11.37;68.84;102129.13;4960840;28;45866;-71
2023/05/17 04:43:41;;;;;;;;;24.00;23.67;;;;;11.46;68.07;102147.09;4960585;28;45441;-71
2023/05/17 04:46:07;;;;;;;;;25.33;25.00;;;;;11.25;68.39;102113.13;4943043;28;47673;-72
2023/05/17 04:48:32;;;;;;;;;20.33;18.33;;;;;11.43;68.04;102139.31;4960875;28;45565;-71
2023/05/17 04:51:04;;;;;;;;;25.67;23.33;;;;;11.59;67.35;102150.50;4943076;28;45396;-71
2023/05/17 04:53:30;;;;;;;;;22.67;19.67;;;;;11.61;67.32;102139.72;4960864;28;45336;-73
2023/05/17 04:55:58;;;;;;;;;22.33;22.33;;;;;11.50;67.75;102140.56;4960103;28;45594;-70
2023/05/17 04:58:24;;;;;;;;;17.00;16.00;;;;;11.33;68.18;102159.59;4960404;28;45460;-70
2023/05/17 05:00:51;;;;;;;;;29.00;25.67;;;;;11.34;67.89;102143.50;4943237;28;45270;-70
2023/05/17 05:03:16;;;;;;;;;26.33;22.33;;;;;11.48;68.05;102161.13;4943335;28;45336;-70
2023/05/17 05:05:42;;;;;;;;;23.67;23.67;;;;;11.13;68.09;102110.50;4960702;28;45621;-72
2023/05/17 05:08:08;;;;;;;;;22.00;18.00;;;;;11.41;67.68;102160.75;4960626;28;45261;-72
2023/05/17 05:10:33;;;;;;;;;22.33;21.67;;;;;11.47;67.39;102164.75;4942085;28;45354;-71
2023/05/17 05:12:59;;;;;;;;;25.00;21.67;;;;;11.02;66.99;102074.06;4941983;28;45603;-72
2023/05/17 05:15:24;;;;;;;;;25.67;22.33;;;;;11.65;67.27;102170.53;4942352;28;47830;-73
2023/05/17 05:17:50;;;;;;;;;21.00;20.00;;;;;11.70;66.59;102177.19;4960086;28;45581;-72
2023/05/17 05:20:15;;;;;;;;;28.00;24.00;;;;;11.46;66.71;102141.75;4942384;28;45501;-72
2023/05/17 05:22:41;;;;;;;;;24.00;24.00;;;;;10.93;66.78;102059.63;4956304;28;45510;-71
2023/05/17 05:25:06;;;;;;;;;29.67;25.33;;;;;11.74;66.84;102183.13;4960185;28;46405;-71
2023/05/17 05:27:34;;;;;;;;;30.00;25.33;;;;;11.64;66.55;102188.31;4959560;28;45334;-75
2023/05/17 05:29:59;;;;;;;;;28.67;26.67;;;;;11.09;66.31;102093.06;4960141;28;45399;-71
2023/05/17 05:32:24;;;;;;;;;27.00;24.67;;;;;11.63;65.97;102165.31;4959048;28;45377;-73
2023/05/17 05:34:50;;;;;;;;;27.67;23.00;;;;;11.64;65.77;102167.00;4959451;28;55256;-72
2023/05/17 05:37:15;;;;;;;;;26.33;23.67;;;;;11.45;66.12;102161.38;4957492;28;45935;-72
2023/05/17 05:39:41;;;;;;;;;25.33;24.67;;;;;11.63;66.43;102197.28;4958770;28;45757;-72
2023/05/17 05:42:06;;;;;;;;;31.33;25.67;;;;;11.53;66.62;102180.28;4941021;28;45647;-72
2023/05/17 05:44:31;;;;;;;;;25.33;23.33;;;;;11.61;66.17;102187.66;4940214;28;47329;-72
2023/05/17 05:46:57;;;;;;;;;22.67;20.67;;;;;11.70;65.92;102187.84;4959768;28;45468;-72
2023/05/17 05:49:22;;;;;;;;;23.33;21.00;;;;;11.73;65.63;102174.28;4958560;28;45328;-74
2023/05/17 05:51:47;;;;;;;;;23.33;22.00;;;;;11.88;65.25;102197.13;4959574;28;45211;-73
2023/05/17 05:54:13;;;;;;;;;16.00;16.00;;;;;11.31;64.96;102089.66;4959044;28;45800;-74
2023/05/17 05:56:38;;;;;;;;;25.33;24.67;;;;;12.01;64.64;102191.69;4958875;28;45511;-72
2023/05/17 05:59:03;;;;;;;;;30.67;29.33;;;;;12.18;63.97;102207.25;4959281;28;45344;-73
2023/05/17 06:01:29;;;;;;;;;24.67;23.00;;;;;11.62;64.28;102126.31;4957530;28;46632;-81
2023/05/17 06:03:54;;;;;;;;;29.67;26.00;;;;;12.17;63.74;102212.69;4958509;28;45946;-72
2023/05/17 06:06:20;;;;;;;;;29.33;23.00;;;;;11.71;64.00;102148.72;4958867;28;45461;-74
2023/05/17 06:08:46;;;;;;;;;27.67;24.67;;;;;12.33;63.35;102197.22;4957991;28;45314;-73
2023/05/17 06:11:12;;;;;;;;;24.00;22.00;;;;;12.64;62.00;102128.09;4958811;28;45414;-73
2023/05/17 06:13:38;;;;;;;;;29.00;24.00;;;;;13.92;58.87;102225.19;4940622;28;47898;-73
2023/05/17 06:16:04;;;;;;;;;24.33;22.00;;;;;14.59;56.55;102205.19;4959014;28;45379;-74
2023/05/17 06:18:30;;;;;;;;;21.67;20.33;;;;;15.28;54.03;102204.41;4958319;28;45873;-74
2023/05/17 06:20:55;;;;;;;;;22.67;17.00;;;;;15.44;52.69;102138.53;4942273;28;45502;-73
2023/05/17 06:23:21;;;;;;;;;18.33;17.33;;;;;16.64;50.44;102236.31;4948931;28;46507;-74
2023/05/17 06:25:46;;;;;;;;;23.67;19.67;;;;;16.51;48.97;102139.13;4938793;28;45300;-71
2023/05/17 06:28:11;;;;;;;;;15.67;15.67;;;;;17.38;47.52;102229.13;4955139;28;45567;-74
2023/05/17 06:30:37;;;;;;;;;18.33;13.33;;;;;17.74;47.32;102213.88;4939478;28;45371;-73
2023/05/17 06:33:02;;;;;;;;;22.67;17.00;;;;;18.30;45.67;102210.78;4940398;28;45853;-76
2023/05/17 06:35:28;;;;;;;;;17.67;16.33;;;;;19.02;44.81;102224.78;4939905;28;46240;-73
2023/05/17 06:37:53;;;;;;;;;12.33;11.67;;;;;19.23;42.91;102202.78;4956402;28;45498;-73
2023/05/17 06:40:19;;;;;;;;;17.67;14.67;;;;;19.72;41.87;102215.34;4957306;28;45558;-78
2023/05/17 06:42:44;;;;;;;;;16.33;14.67;;;;;20.24;41.46;102214.16;4957867;28;45549;-75
2023/05/17 06:45:10;;;;;;;;;18.00;17.00;;;;;20.89;38.66;102233.72;4958185;28;45576;-74
2023/05/17 06:47:35;;;;;;;;;12.33;12.00;;;;;20.88;38.87;102221.22;4957621;28;45279;-74
2023/05/17 06:50:00;;;;;;;;;11.67;11.67;;;;;20.76;37.67;102154.22;4958043;28;45425;-76
2023/05/17 06:52:26;;;;;;;;;16.67;14.33;;;;;21.62;36.61;102237.03;4940555;28;47564;-74
2023/05/17 06:54:51;;;;;;;;;18.67;15.33;;;;;22.01;36.53;102239.59;4940523;28;45393;-76
2023/05/17 06:57:17;;;;;;;;;16.67;15.33;;;;;22.28;35.84;102221.94;4957962;28;45553;-74
2023/05/17 06:59:42;;;;;;;;;18.33;13.33;;;;;22.30;35.08;102230.72;4956374;28;45623;-75
2023/05/17 07:02:07;;;;;;;;;13.00;12.00;;;;;22.05;34.77;102239.09;4922247;28;46507;-75
2023/05/17 07:04:33;;;;;;;;;11.00;11.00;;;;;22.07;35.77;102242.47;4953245;28;45449;-75
2023/05/17 07:06:58;;;;;;;;;11.33;11.33;;;;;22.40;34.79;102245.69;4939857;28;45490;-75
2023/05/17 07:09:23;;;;;;;;;13.00;7.67;;;;;22.43;34.90;102247.19;4957907;28;47349;-75
2023/05/17 07:11:49;;;;;;;;;12.33;12.33;;;;;21.94;35.25;102247.63;4957759;28;45731;-74
2023/05/17 07:14:14;;;;;;;;;13.00;11.00;;;;;21.03;36.07;102169.13;4942304;28;45579;-74
2023/05/17 07:16:40;;;;;;;;;15.67;12.67;;;;;21.52;36.11;102242.69;4956486;28;45628;-75
2023/05/17 07:19:05;;;;;;;;;16.67;14.00;;;;;21.95;35.60;102199.72;4938881;28;45816;-76
2023/05/17 07:21:31;;;;;;;;;9.67;8.33;;;;;22.73;34.46;102254.31;4939186;28;47536;-75
2023/05/17 07:23:57;;;;;;;;;12.33;12.00;;;;;23.05;34.29;102257.69;4955619;28;45562;-75
2023/05/17 07:26:22;;;;;;;;;10.67;7.67;;;;;23.09;32.71;102240.00;4923730;28;45419;-74
2023/05/17 07:28:48;;;;;;;;;13.33;10.33;;;;;23.52;32.79;102265.31;4957292;28;45446;-78
2023/05/17 07:31:13;;;;;;;;;9.33;9.00;;;;;23.24;33.41;102257.09;4956736;28;46417;-75
2023/05/17 07:33:38;;;;;;;;;10.00;10.00;;;;;23.81;32.93;102253.50;4958012;28;45504;-73
2023/05/17 07:36:05;;;;;;;;;12.67;10.33;;;;;24.03;31.21;102223.59;4953697;28;45425;-74
2023/05/17 07:38:30;;;;;;;;;9.00;9.00;;;;;24.59;30.60;102251.63;4957779;28;45410;-75
2023/05/17 07:40:56;;;;;;;;;10.00;7.67;;;;;24.99;28.94;102269.03;4940018;28;47296;-75
2023/05/17 07:43:21;;;;;;;;;7.67;7.00;;;;;25.28;28.96;102277.97;4957593;28;51045;-76
2023/05/17 07:45:46;;;;;;;;;4.00;4.00;;;;;25.32;28.20;102268.34;4933933;28;45531;-74
2023/05/17 07:48:12;;;;;;;;;7.33;7.33;;;;;25.41;28.45;102261.66;4946282;28;45338;-74
2023/05/17 07:50:38;;;;;;;;;9.67;7.00;;;;;25.37;28.53;102260.38;4936135;28;47749;-75
2023/05/17 07:53:03;;;;;;;;;7.00;6.67;;;;;25.51;28.94;102273.00;4939834;28;45348;-76
2023/05/17 07:55:28;;;;;;;;;10.00;10.00;;;;;25.48;28.61;102268.81;4945289;28;45512;-75
2023/05/17 07:57:54;;;;;;;;;11.33;11.00;;;;;24.98;29.46;102267.34;4956976;28;45258;-74
2023/05/17 08:00:19;;;;;;;;;10.00;9.00;;;;;24.99;29.38;102252.72;4944704;28;45606;-75
2023/05/17 08:02:45;;;;;;;;;15.00;11.00;;;;;25.31;29.09;102258.50;4950665;28;45341;-74
2023/05/17 08:05:10;;;;;;;;;14.00;14.00;;;;;25.58;28.60;102223.97;4932669;28;45557;-74
2023/05/17 08:07:36;;;;;;;;;15.00;13.67;;;;;25.75;28.29;102203.50;4954268;28;45553;-75
2023/05/17 08:10:01;;;;;;;;;12.67;12.67;;;;;25.87;28.06;102241.88;4957310;28;45954;-77
2023/05/17 08:12:27;;;;;;;;;15.33;12.33;;;;;26.21;28.32;102258.00;4956589;28;45505;-74
2023/05/17 08:14:52;;;;;;;;;14.00;12.33;;;;;26.14;28.40;102264.50;4949883;28;45372;-75
2023/05/17 08:17:17;;;;;;;;;9.33;9.00;;;;;26.06;27.88;102238.31;4937778;28;45330;-76
2023/05/17 08:19:43;;;;;;;;;7.67;7.67;;;;;26.09;27.80;102254.25;4951220;28;47811;-74
2023/05/17 08:22:09;;;;;;;;;13.00;9.33;;;;;26.30;27.05;102264.09;4939399;28;46325;-75
2023/05/17 08:24:34;;;;;;;;;11.33;9.00;;;;;25.50;28.25;102263.16;4952899;28;45450;-76
2023/05/17 08:27:01;;;;;;;;;11.00;10.33;;;;;25.28;28.70;102258.91;4948372;28;45582;-74
2023/05/17 08:29:26;;;;;;;;;11.67;11.00;;;;;25.35;28.85;102249.72;4936708;28;46693;-75
2023/05/17 08:31:53;;;;;;;;;11.33;10.33;;;;;25.60;28.46;102228.19;4938113;28;45365;-75
2023/05/17 08:34:18;;;;;;;;;8.33;8.33;;;;;25.81;27.87;102272.66;4938113;28;45453;-74
2023/05/17 08:36:44;;;;;;;;;11.33;9.67;;;;;25.62;27.92;102264.22;4948098;28;45513;-76
2023/05/17 08:39:10;;;;;;;;;11.33;8.00;;;;;25.93;28.16;102233.69;4956539;28;46237;-74
2023/05/17 08:41:35;;;;;;;;;6.00;6.00;;;;;25.45;27.19;102258.34;4953011;28;45340;-75
2023/05/17 08:44:03;;;;;;;;;11.00;11.00;;;;;25.18;27.99;102246.50;4954981;28;45504;-75
2023/05/17 08:46:30;;;;;;;;;11.33;8.67;;;;;25.64;27.80;102267.59;4956954;28;45480;-73
2023/05/17 08:48:58;;;;;;;;;10.33;10.33;;;;;25.90;27.08;102253.19;4938730;28;47436;-74
2023/05/17 08:51:25;;;;;;;;;7.67;7.33;;;;;26.45;26.57;102226.53;4939297;28;45589;-75
2023/05/17 08:53:50;;;;;;;;;10.00;10.00;;;;;26.78;26.15;102244.69;4940834;28;45333;-75
2023/05/17 08:56:18;;;;;;;;;8.33;6.67;;;;;26.76;24.73;102227.69;4953943;28;45421;-74
2023/05/17 08:58:43;;;;;;;;;7.00;7.00;;;;;27.17;24.73;102241.00;4960215;28;46599;-75
2023/05/17 09:01:10;;;;;;;;;7.00;4.67;;;;;27.37;24.06;102222.59;4959229;28;45746;-74
2023/05/17 09:03:40;;;;;;;;;10.25;6.25;;;;;26.79;23.96;102183.59;4959574;28;45384;-73
2023/05/17 09:06:06;;;;;;;;;9.00;5.67;;;;;26.43;23.95;102173.25;4958180;28;45492;-74
2023/05/17 09:08:32;;;;;;;;;6.00;5.00;;;;;27.08;24.48;102232.22;4958405;28;46764;-74
2023/05/17 09:10:58;;;;;;;;;7.00;6.00;;;;;27.77;23.64;102223.19;4936907;28;45515;-74
2023/05/17 09:13:24;;;;;;;;;8.00;7.00;;;;;28.23;22.95;102240.22;4941620;28;45298;-74
2023/05/17 09:15:50;;;;;;;;;6.00;4.33;;;;;28.74;22.03;102210.66;4950258;28;45538;-73
2023/05/17 09:18:17;;;;;;;;;9.00;7.67;;;;;29.38;20.97;102191.91;4958653;28;46671;-73
2023/05/17 09:20:50;;;;;;;;;6.33;6.00;;;;;30.01;20.25;102237.09;4949878;28;45629;-73
2023/05/17 09:23:19;;;;;;;;;7.00;6.67;;;;;30.20;19.62;102208.50;4937456;28;45411;-73
2023/05/17 09:25:48;;;;;;;;;8.67;6.33;;;;;30.83;19.81;102232.41;4948292;28;45484;-73
2023/05/17 09:28:14;;;;;;;;;6.00;6.00;;;;;31.32;19.92;102232.88;4958876;28;46577;-72
2023/05/17 09:30:40;;;;;;;;;7.00;6.00;;;;;32.06;18.60;102222.63;4950914;28;45387;-74
2023/05/17 09:33:10;;;;;;;;;7.67;5.00;;;;;32.81;17.91;102202.75;4954039;28;45437;-76
2023/05/17 09:35:37;;;;;;;;;6.00;6.00;;;;;33.64;17.60;102235.59;4941464;28;45308;-73
2023/05/17 09:38:10;;;;;;;;;2.00;1.00;;;;;34.00;17.25;102231.22;4959441;28;46657;-74
2023/05/17 09:40:46;;;;;;;;;9.00;8.00;;;;;34.02;17.07;102242.81;4939938;28;45341;-78
2023/05/17 09:43:13;;;;;;;;;5.33;4.67;;;;;34.70;16.43;102236.38;4950353;28;45238;-76
2023/05/17 09:45:39;;;;;;;;;5.67;5.67;;;;;34.60;15.89;102218.91;4941384;28;45500;-73
2023/05/17 09:48:17;;;;;;;;;5.00;5.00;;;;;34.26;16.19;102241.34;4939853;28;45718;-73
2023/05/17 09:50:52;;;;;;;;;5.67;5.67;;;;;33.72;16.95;102221.34;4941360;28;45500;-74
2023/05/17 09:53:32;;;;;;;;;5.00;5.00;;;;;33.35;16.60;102227.63;4941805;28;45539;-73
2023/05/17 09:56:04;;;;;;;;;6.00;6.00;;;;;32.79;17.39;102228.84;4959143;28;45479;-74
2023/05/17 09:58:32;;;;;;;;;7.00;7.00;;;;;32.07;17.90;102229.78;4940386;28;47533;-73
2023/05/17 10:01:05;;;;;;;;;9.00;8.00;;;;;30.72;19.04;102236.03;4941151;28;46530;-71
2023/05/17 10:03:36;;;;;;;;;5.00;5.00;;;;;29.22;20.72;102215.31;4957801;28;45499;-73
2023/05/17 10:06:05;;;;;;;;;6.33;6.33;;;;;28.49;21.34;102218.13;4947072;28;45542;-71
2023/05/17 10:08:32;;;;;;;;;7.00;4.67;;;;;27.28;23.01;102232.13;4940641;28;46581;-75
2023/05/17 10:11:02;;;;;;;;;5.00;4.00;;;;;25.87;23.76;102225.53;4938773;28;45443;-75
2023/05/17 10:13:34;;;;;;;;;7.00;5.33;;;;;25.08;24.78;102237.06;4941273;28;45643;-75
2023/05/17 10:16:01;;;;;;;;;4.00;4.00;;;;;24.30;25.62;102211.09;4958718;28;45302;-76
2023/05/17 10:18:28;;;;;;;;;9.67;9.67;;;;;23.89;26.41;102223.53;4940844;28;47056;-75
2023/05/17 10:20:54;;;;;;;;;10.67;7.00;;;;;23.73;27.35;102231.94;4940647;28;45295;-73
2023/05/17 10:23:21;;;;;;;;;8.67;8.00;;;;;23.24;28.24;102213.66;4957679;28;45616;-74
2023/05/17 10:25:47;;;;;;;;;5.67;5.33;;;;;21.64;29.16;102040.16;4951516;28;45483;-75
2023/05/17 10:28:16;;;;;;;;;8.33;6.00;;;;;21.81;29.74;102128.25;4952420;28;45562;-75
2023/05/17 10:30:42;;;;;;;;;6.33;5.33;;;;;22.07;30.78;102230.78;4941129;28;46233;-72
2023/05/17 10:33:10;;;;;;;;;5.33;4.33;;;;;21.57;31.13;102224.06;4954759;28;45406;-74
2023/05/17 10:35:37;;;;;;;;;6.00;6.00;;;;;21.08;31.57;102213.53;4935656;28;45586;-74
2023/05/17 10:38:02;;;;;;;;;9.67;6.00;;;;;20.93;31.55;102205.31;4958187;28;46437;-77
2023/05/17 10:40:30;;;;;;;;;8.67;7.67;;;;;20.82;31.53;102189.50;4957333;28;45388;-74
2023/05/17 10:42:56;;;;;;;;;4.33;4.33;;;;;20.77;31.50;102199.97;4957673;28;45287;-76
2023/05/17 10:45:24;;;;;;;;;8.00;5.00;;;;;20.50;32.41;102203.97;4941010;28;45642;-73
2023/05/17 10:47:53;;;;;;;;;7.33;6.67;;;;;20.43;32.33;102212.97;4939883;28;47916;-74
2023/05/17 10:50:25;;;;;;;;;4.75;4.75;;;;;20.09;33.59;102203.19;4947487;28;45436;-75
2023/05/17 10:52:54;;;;;;;;;5.00;4.00;;;;;19.95;32.91;102203.88;4950567;28;45366;-74
2023/05/17 10:55:33;;;;;;;;;6.67;5.00;;;;;19.85;32.82;102197.81;4936566;28;45578;-74
2023/05/17 10:58:17;;;;;;;;;4.67;4.67;;;;;19.89;32.90;102208.09;4939430;28;47394;-76
2023/05/17 11:00:48;;;;;;;;;6.00;6.00;;;;;19.68;33.11;102175.38;4950310;28;45503;-76
2023/05/17 11:03:29;;;;;;;;;4.00;3.33;;;;;19.45;32.84;102175.19;4950573;28;45344;-74
2023/05/17 11:06:10;;;;;;;;;4.00;4.00;;;;;19.45;33.92;102202.16;4926178;28;45520;-75
2023/05/17 11:08:41;;;;;;;;;5.67;4.00;;;;;19.57;33.38;102221.56;4921400;28;47468;-75
2023/05/17 11:11:16;;;;;;;;;6.00;6.00;;;;;18.63;33.58;102084.41;4921126;28;45350;-74
2023/05/17 11:13:50;;;;;;;;;3.00;3.00;;;;;19.24;33.52;102199.09;4938616;28;45363;-74
2023/05/17 11:16:16;;;;;;;;;4.00;4.00;;;;;19.18;33.71;102178.16;4941558;28;45526;-74